If you wish to contribute or participate in the discussions about articles you are invited to join SKYbrary as a registered user

 Actions

Anvik Airport

From SKYbrary Wiki

PANV
Airport
ICAO: PANV – IATA: ANV
Summary
Name Anvik Airport
Region North America
Territory Alaska US.gif
Location , Alaska
Serving Anvik
Elevation 88.697 m
291 ft
291 ft88.697 m
Type medium airport
Coordinates 62° 38' 48.12" N, 160° 11' 27.60" W
Runways
Designator Length Width Surface ROPS
17/35 902 m2,959.318 ft
23 m75.459 ft
GVL /


METAR
Observation PANV 242211Z AUTO 18014G21KT 8SM -SN BKN010 OVC017 02/00 A2977 RMK AO2 RAE11SNB11 CIG 007V014 P0000 FZRANO
Station Anvik, Anvik Airport
Date/Time 24 March 2019 22:11:00
Wind direction 180°
Wind speed 14 kts
Lowest cloud amount broken clouds
Temperature 2°C
Dew point 0°C
Humidity 86%
QNH hPa
Weather condition light snow